Time;durP1;ratioP1;P1;durP2;ratioP2;P2;SDS_P1;SDS_P2;PMS_P1;PMS_P2;Temp;Humidity;BMP_temperature;BMP_pressure;BME280_temperature;BME280_humidity;BME280_pressure;Samples;Min_cycle;Max_cycle;Signal;HPM_P1;HPM_P2
2023/03/09 00:14:26;;;;;;;116.70;43.60;;;;;;;4.12;64.53;98519.17;672182;1263;139033;-88
2023/03/09 00:29:30;;;;;;;87.90;34.00;;;;;;;4.19;64.63;98510.47;673300;1282;139693;-87
2023/03/09 00:44:34;;;;;;;48.10;23.10;;;;;;;4.17;64.55;98493.13;671176;1263;139383;-88
2023/03/09 00:59:37;;;;;;;55.60;21.40;;;;;;;4.01;64.68;98478.66;671579;1260;139405;-89
2023/03/09 01:14:40;;;;;;;36.30;17.40;;;;;;;3.75;64.77;98477.70;672746;1263;138854;-87
2023/03/09 01:29:45;;;;;;;31.50;15.00;;;;;;;3.70;64.80;98487.30;671080;1264;138949;-87
2023/03/09 01:45:11;;;;;;;28.70;15.50;;;;;;;3.60;64.83;98488.83;670725;1258;138834;-87
2023/03/09 02:00:18;;;;;;;23.20;12.50;;;;;;;3.52;64.93;98485.90;670923;1259;138927;-87
2023/03/09 02:15:27;;;;;;;16.10;7.50;;;;;;;3.50;64.70;98478.67;670773;1277;139320;-86
2023/03/09 02:30:35;;;;;;;16.70;7.30;;;;;;;3.33;64.27;98465.88;670165;1264;139109;-86
2023/03/09 02:45:39;;;;;;;10.40;5.50;;;;;;;3.39;63.61;98460.93;670698;1262;139912;-85
2023/03/09 03:00:43;;;;;;;10.00;4.40;;;;;;;3.39;63.51;98471.13;670891;1267;138951;-86
2023/03/09 03:15:46;;;;;;;13.50;7.50;;;;;;;2.18;65.53;98487.32;670874;1258;139261;-85
2023/03/09 03:30:51;;;;;;;7.20;4.00;;;;;;;2.18;65.73;98499.05;672793;1263;139296;-85
2023/03/09 03:45:56;;;;;;;9.00;3.30;;;;;;;2.20;65.34;98521.81;670172;1262;138800;-85
2023/03/09 04:01:00;;;;;;;7.10;3.40;;;;;;;2.33;64.43;98532.14;669219;1259;138889;-85
2023/03/09 04:16:04;;;;;;;7.90;3.60;;;;;;;2.15;63.90;98528.25;675401;1263;138693;-84
2023/03/09 04:31:08;;;;;;;12.20;4.80;;;;;;;2.10;63.77;98533.17;671007;1268;139036;-84
2023/03/09 04:46:12;;;;;;;9.10;4.30;;;;;;;2.05;63.88;98524.42;671681;1259;138819;-84
2023/03/09 05:01:18;;;;;;;11.50;4.40;;;;;;;2.32;62.80;98526.49;672508;1262;138667;-83
2023/03/09 05:16:22;;;;;;;11.00;5.50;;;;;;;2.54;61.99;98536.70;671998;1263;138996;-84
2023/03/09 05:31:25;;;;;;;12.80;7.00;;;;;;;2.51;61.60;98534.64;673220;1264;138701;-83
2023/03/09 05:46:29;;;;;;;14.30;5.80;;;;;;;2.27;62.30;98530.22;674065;1262;139875;-82
2023/03/09 06:01:32;;;;;;;16.80;8.30;;;;;;;2.01;63.01;98545.06;674108;1263;139288;-83
2023/03/09 06:16:48;;;;;;;15.30;5.70;;;;;;;2.07;63.18;98549.60;672492;1266;138910;-82
2023/03/09 06:31:52;;;;;;;25.30;11.70;;;;;;;2.21;62.90;98553.63;669980;1264;138767;-82
2023/03/09 06:46:56;;;;;;;19.50;8.70;;;;;;;2.68;62.06;98566.02;671831;1264;138896;-84
2023/03/09 07:02:01;;;;;;;225.40;76.10;;;;;;;3.65;59.53;98587.97;669443;1264;138668;-82
2023/03/09 07:17:04;;;;;;;10.70;5.30;;;;;;;3.85;58.63;98588.20;671953;1263;139587;-82
2023/03/09 07:32:08;;;;;;;8.40;3.60;;;;;;;3.98;57.23;98591.90;672745;1263;138806;-83
2023/03/09 07:47:12;;;;;;;10.10;4.60;;;;;;;4.03;56.16;98601.50;671523;1275;138318;-81
2023/03/09 08:02:15;;;;;;;7.90;4.30;;;;;;;4.48;55.76;98609.83;670521;1263;156872;-82
2023/03/09 08:17:18;;;;;;;48.80;13.40;;;;;;;4.71;54.39;98616.23;672117;1260;138170;-82
2023/03/09 08:32:25;;;;;;;22.10;8.50;;;;;;;4.80;53.29;98617.21;672101;1262;138027;-83
2023/03/09 08:47:28;;;;;;;20.40;9.10;;;;;;;5.08;50.29;98630.06;672140;1262;138142;-83
2023/03/09 09:02:33;;;;;;;83.80;25.80;;;;;;;5.54;48.23;98646.14;670907;1264;137796;-85
2023/03/09 09:17:37;;;;;;;6.70;3.90;;;;;;;5.83;47.67;98647.95;672298;1268;138887;-85
2023/03/09 09:32:40;;;;;;;23.60;9.40;;;;;;;5.73;45.62;98652.69;673329;1266;137623;-85
2023/03/09 09:47:43;;;;;;;138.10;43.30;;;;;;;5.80;45.11;98671.19;674987;1260;138751;-85
2023/03/09 10:02:46;;;;;;;178.50;54.50;;;;;;;5.95;44.93;98686.10;673968;1270;138506;-85
2023/03/09 10:18:01;;;;;;;93.10;30.70;;;;;;;6.10;44.30;98692.67;672973;1264;138295;-86
2023/03/09 10:33:07;;;;;;;38.30;16.50;;;;;;;6.80;43.01;98700.20;673181;1263;138425;-85
2023/03/09 10:48:23;;;;;;;13.80;3.80;;;;;;;7.85;40.63;98713.46;672111;1265;138317;-86
2023/03/09 11:03:41;;;;;;;8.70;4.40;;;;;;;7.84;39.07;98719.50;671059;1265;138577;-86
2023/03/09 11:18:45;;;;;;;20.70;10.80;;;;;;;7.49;39.30;98723.23;671426;1265;138484;-86
2023/03/09 11:33:57;;;;;;;19.10;8.10;;;;;;;7.57;39.69;98731.49;672218;1264;138909;-88
2023/03/09 11:49:09;;;;;;;81.80;24.10;;;;;;;7.64;39.85;98739.07;674533;1273;138199;-87
2023/03/09 12:04:16;;;;;;;140.00;42.60;;;;;;;7.32;39.50;98753.93;672233;1273;138152;-88
2023/03/09 12:19:22;;;;;;;26.00;8.50;;;;;;;7.17;39.21;98768.23;669245;1264;138180;-85
2023/03/09 12:34:38;;;;;;;10.20;3.30;;;;;;;7.00;38.91;98772.51;669084;1264;138099;-84
2023/03/09 12:49:41;;;;;;;24.40;9.40;;;;;;;6.77;37.81;98782.34;669678;1264;136517;-87
2023/03/09 13:05:32;;;;;;;10.60;4.90;;;;;;;7.15;39.27;98794.35;670045;1264;138137;-85
2023/03/09 13:20:37;;;;;;;43.30;22.10;;;;;;;7.10;38.52;98783.90;669450;1264;138182;-84
2023/03/09 13:35:48;;;;;;;14.20;6.60;;;;;;;7.18;38.67;98790.59;669989;1274;138527;-86
2023/03/09 13:50:51;;;;;;;43.40;20.50;;;;;;;7.57;38.62;98817.91;669209;1263;138065;-84
2023/03/09 14:06:07;;;;;;;60.30;21.80;;;;;;;6.40;40.20;98840.06;670735;1276;138135;-84
2023/03/09 14:21:35;;;;;;;35.90;13.10;;;;;;;6.90;40.21;98854.07;670225;1260;138568;-85
2023/03/09 14:36:59;;;;;;;242.00;82.70;;;;;;;7.51;39.18;98856.77;669742;1264;138070;-85
2023/03/09 14:52:02;;;;;;;155.30;57.10;;;;;;;7.10;39.05;98855.82;669977;1264;138745;-84
2023/03/09 15:07:08;;;;;;;109.00;36.10;;;;;;;7.12;40.24;98864.52;669831;1263;138789;-84
2023/03/09 15:22:13;;;;;;;190.50;58.20;;;;;;;6.94;40.64;98870.59;670769;1260;138258;-84
2023/03/09 15:37:16;;;;;;;155.80;55.10;;;;;;;6.69;40.78;98889.65;671034;1273;138897;-84
2023/03/09 15:52:20;;;;;;;96.40;33.20;;;;;;;6.48;41.30;98894.17;670934;1259;139483;-84
2023/03/09 16:07:23;;;;;;;70.00;28.80;;;;;;;6.29;42.54;98906.86;671129;1264;137985;-83
2023/03/09 16:22:27;;;;;;;218.70;92.00;;;;;;;6.21;42.79;98910.73;671196;1263;138518;-84
2023/03/09 16:37:30;;;;;;;153.00;50.20;;;;;;;6.07;43.35;98921.73;669236;1264;138816;-84
2023/03/09 17:06:33;;;;;;;220.90;68.60;;;;;;;5.87;45.18;98960.10;651773;1298;545504;-83
2023/03/09 17:21:37;;;;;;;135.00;44.80;;;;;;;5.66;45.93;98971.63;670874;1264;137574;-84
2023/03/09 17:36:44;;;;;;;198.00;73.60;;;;;;;5.53;45.78;98981.61;672208;1263;137977;-84
2023/03/09 17:51:47;;;;;;;161.00;47.80;;;;;;;5.39;46.27;98983.69;671849;1263;137887;-83
2023/03/09 18:06:51;;;;;;;76.60;30.80;;;;;;;5.49;45.98;98988.07;671584;1266;137791;-85
2023/03/09 18:21:55;;;;;;;192.70;62.70;;;;;;;5.43;46.47;99004.05;669829;1272;137927;-85
2023/03/09 18:36:58;;;;;;;360.40;115.60;;;;;;;5.38;47.51;99010.38;670080;1262;137726;-84
2023/03/09 18:52:02;;;;;;;378.60;135.10;;;;;;;5.30;47.75;99003.38;670102;1263;138123;-86
2023/03/09 19:07:08;;;;;;;150.30;55.10;;;;;;;5.15;48.30;99003.12;673171;1262;137759;-83
2023/03/09 19:22:12;;;;;;;173.90;62.20;;;;;;;5.19;48.12;99005.27;672965;1273;137947;-85
2023/03/09 19:37:16;;;;;;;279.00;91.90;;;;;;;5.13;48.03;98996.40;670815;1261;138149;-86
2023/03/09 19:52:19;;;;;;;102.90;36.70;;;;;;;5.00;48.45;98989.63;674312;1263;138352;-85
2023/03/09 20:07:23;;;;;;;92.30;32.50;;;;;;;5.00;48.20;98985.35;674448;1263;138475;-84
2023/03/09 20:22:27;;;;;;;109.60;42.30;;;;;;;4.95;48.34;98976.39;670132;1264;138010;-84
2023/03/09 20:37:30;;;;;;;79.80;28.20;;;;;;;4.92;49.19;98991.18;670714;1260;138155;-86
2023/03/09 20:52:34;;;;;;;89.80;44.40;;;;;;;4.98;49.02;99004.20;672934;1265;138150;-84
2023/03/09 21:07:38;;;;;;;111.20;39.30;;;;;;;4.89;49.51;99001.52;672255;1267;138446;-85
2023/03/09 21:22:41;;;;;;;55.80;17.50;;;;;;;4.86;50.09;99001.55;674446;1274;139837;-84
2023/03/09 21:37:47;;;;;;;53.90;17.80;;;;;;;4.82;50.34;98999.10;673223;1263;138596;-85
2023/03/09 21:52:50;;;;;;;127.00;39.70;;;;;;;4.78;50.33;98993.59;674422;1257;138679;-84
2023/03/09 22:07:54;;;;;;;27.00;10.30;;;;;;;4.57;50.05;98992.72;671307;1279;138081;-84
2023/03/09 22:22:58;;;;;;;23.60;8.70;;;;;;;4.29;49.33;98971.33;670528;1260;138097;-83
2023/03/09 22:38:01;;;;;;;14.00;4.10;;;;;;;4.52;49.14;98949.02;671878;1270;137986;-84
2023/03/09 22:53:04;;;;;;;15.30;5.70;;;;;;;4.14;50.14;98935.19;670916;1258;137931;-85
2023/03/09 23:08:11;;;;;;;11.50;4.50;;;;;;;4.01;50.66;98915.70;672335;1263;138323;-84
2023/03/09 23:23:15;;;;;;;25.40;7.70;;;;;;;3.89;51.87;98894.11;669932;1264;138273;-82
2023/03/09 23:38:18;;;;;;;22.20;7.50;;;;;;;3.91;52.86;98867.35;669875;1262;138281;-84
2023/03/09 23:53:21;;;;;;;31.00;10.20;;;;;;;4.03;53.31;98856.34;671387;1263;138311;-84
